Time;durP1;ratioP1;P1;durP2;ratioP2;P2;SDS_P1;SDS_P2;PMS_P1;PMS_P2;Temp;Humidity;BMP_temperature;BMP_pressure;BME280_temperature;BME280_humidity;BME280_pressure;Samples;Min_cycle;Max_cycle;Signal;HPM_P1;HPM_P2
2022/04/10 00:02:19;;;;;;;1.33;0.28;;;9.90;63.80;;;;;;20800279;28;20034;-75
2022/04/10 00:12:19;;;;;;;5.03;0.82;;;9.80;63.80;;;;;;20796687;28;20123;-75
2022/04/10 00:22:20;;;;;;;1.67;0.38;;;9.80;63.80;;;;;;20813943;28;20033;-75
2022/04/10 00:32:28;;;;;;;3.17;0.45;;;9.80;63.70;;;;;;20796993;28;20531;-75
2022/04/10 00:42:32;;;;;;;0.63;0.38;;;9.80;63.70;;;;;;20796858;28;20088;-75
2022/04/10 00:52:32;;;;;;;1.75;0.70;;;9.80;63.70;;;;;;20779060;28;20048;-76
2022/04/10 01:02:33;;;;;;;3.30;0.57;;;9.80;63.70;;;;;;20794807;28;20430;-76
2022/04/10 01:12:34;;;;;;;8.95;1.10;;;9.70;63.60;;;;;;20778212;28;20380;-75
2022/04/10 01:22:40;;;;;;;2.17;0.47;;;9.80;63.60;;;;;;20792481;28;20077;-76
2022/04/10 01:32:44;;;;;;;2.13;0.40;;;9.70;63.50;;;;;;20792530;28;20033;-75
2022/04/10 01:42:45;;;;;;;3.33;0.45;;;9.70;63.50;;;;;;20791190;28;20038;-75
2022/04/10 01:52:46;;;;;;;2.47;0.60;;;9.70;63.50;;;;;;20792086;28;20094;-75
2022/04/10 02:02:46;;;;;;;2.85;0.63;;;9.70;63.50;;;;;;20806471;28;20476;-76
2022/04/10 02:12:48;;;;;;;1.23;0.50;;;9.70;63.60;;;;;;20774582;28;20030;-76
2022/04/10 02:22:53;;;;;;;3.75;0.95;;;9.70;63.50;;;;;;21131115;22;20305;-75
2022/04/10 02:32:53;;;;;;;2.67;0.70;;;9.60;63.50;;;;;;20712396;28;20414;-75
2022/04/10 02:42:54;;;;;;;2.37;0.67;;;9.60;63.40;;;;;;20711475;28;20120;-75
2022/04/10 02:52:55;;;;;;;2.85;0.50;;;9.70;63.40;;;;;;20728642;28;20325;-76
2022/04/10 03:02:55;;;;;;;1.65;0.63;;;9.70;63.40;;;;;;20711570;28;20080;-75
2022/04/10 03:12:56;;;;;;;0.85;0.40;;;9.60;63.40;;;;;;20742660;28;20073;-75
2022/04/10 03:22:57;;;;;;;1.92;1.02;;;9.60;63.30;;;;;;20710495;28;20445;-74
2022/04/10 03:32:58;;;;;;;5.00;0.70;;;9.60;63.30;;;;;;20741330;28;20038;-75
2022/04/10 03:43:01;;;;;;;4.55;0.50;;;9.60;63.30;;;;;;20708417;28;20037;-74
2022/04/10 03:53:03;;;;;;;6.72;0.90;;;9.60;63.20;;;;;;20707370;28;20041;-75
2022/04/10 04:03:04;;;;;;;1.00;0.60;;;9.60;63.20;;;;;;20691151;28;20069;-75
2022/04/10 04:13:08;;;;;;;7.88;0.88;;;9.50;63.10;;;;;;20722221;28;20484;-77
2022/04/10 04:23:09;;;;;;;1.17;0.63;;;9.60;63.20;;;;;;20720898;28;20042;-75
2022/04/10 04:33:10;;;;;;;7.22;0.93;;;9.50;63.10;;;;;;20721293;28;20064;-75
2022/04/10 04:43:12;;;;;;;3.08;0.43;;;9.50;63.10;;;;;;20736487;28;20030;-75
2022/04/10 04:53:13;;;;;;;3.88;0.60;;;9.50;63.20;;;;;;20734591;28;20048;-77
2022/04/10 05:03:16;;;;;;;3.47;0.75;;;9.60;63.20;;;;;;20717870;28;20068;-75
2022/04/10 05:13:17;;;;;;;3.85;0.80;;;9.50;63.10;;;;;;20700973;28;20037;-76
2022/04/10 05:23:19;;;;;;;3.38;1.33;;;9.40;63.00;;;;;;20701380;28;20085;-76
2022/04/10 05:33:26;;;;;;;8.13;1.45;;;9.50;63.00;;;;;;20712580;28;20050;-80
2022/04/10 05:43:28;;;;;;;3.85;1.70;;;9.50;63.00;;;;;;20693466;28;20026;-77
2022/04/10 05:53:30;;;;;;;7.07;1.30;;;9.50;63.10;;;;;;20698776;28;20092;-76
2022/04/10 06:03:31;;;;;;;3.47;1.08;;;9.50;63.10;;;;;;20713347;28;20121;-77
2022/04/10 06:13:34;;;;;;;4.28;1.17;;;9.50;63.10;;;;;;20710270;28;20037;-80
2022/04/10 06:23:40;;;;;;;5.07;0.60;;;9.40;63.10;;;;;;20712321;28;20176;-75
2022/04/10 06:33:49;;;;;;;;;;;9.40;63.10;;;;;;20700876;28;20038;-79
2022/04/10 06:43:50;;;;;;;3.00;0.98;;;9.40;63.20;;;;;;20709994;28;20332;-80
2022/04/10 06:54:07;;;;;;;4.07;0.93;;;9.40;63.10;;;;;;20699543;28;20072;-80
2022/04/10 07:04:09;;;;;;;2.60;1.15;;;9.40;63.10;;;;;;20703218;28;20061;-76
2022/04/10 07:14:11;;;;;;;2.67;0.70;;;9.40;63.10;;;;;;20690636;28;20104;-80
2022/04/10 07:24:12;;;;;;;7.45;1.35;;;9.40;63.10;;;;;;20633872;28;20041;-73
2022/04/10 07:34:19;;;;;;;3.33;1.47;;;9.40;63.10;;;;;;20640323;28;20386;-80
2022/04/10 07:44:44;;;;;;;2.78;1.25;;;9.40;63.10;;;;;;20674659;28;20303;-75
2022/04/10 07:54:45;;;;;;;5.32;1.10;;;9.40;63.10;;;;;;20711917;28;20132;-74
2022/04/10 08:04:46;;;;;;;6.15;1.00;;;9.40;63.10;;;;;;20697159;28;20201;-74
2022/04/10 08:15:03;;;;;;;5.30;1.10;;;9.50;63.80;;;;;;20664978;28;20042;-73
2022/04/10 08:25:09;;;;;;;7.72;1.63;;;9.40;63.10;;;;;;20695016;28;20049;-74
2022/04/10 08:35:11;;;;;;;3.33;1.17;;;9.40;62.80;;;;;;20711762;28;20476;-74
2022/04/10 08:45:14;;;;;;;4.28;1.92;;;9.40;62.60;;;;;;20675458;28;20038;-76
2022/04/10 08:55:15;;;;;;;2.05;1.40;;;9.40;62.60;;;;;;20708465;28;20041;-76
2022/04/10 09:05:20;;;;;;;1.65;0.75;;;9.40;62.50;;;;;;20677563;28;20168;-76
2022/04/10 09:15:20;;;;;;;4.93;1.02;;;9.40;62.40;;;;;;20646446;28;20052;-78
2022/04/10 09:25:21;;;;;;;5.23;1.07;;;9.40;62.30;;;;;;20706775;28;20042;-79
2022/04/10 09:35:22;;;;;;;4.13;1.05;;;9.40;62.20;;;;;;20701281;28;20387;-79
2022/04/10 09:45:44;;;;;;;5.75;0.90;;;9.40;62.10;;;;;;20686769;28;20137;-75
2022/04/10 09:56:02;;;;;;;4.57;1.05;;;9.40;62.00;;;;;;20676246;28;20038;-79
2022/04/10 10:06:02;;;;;;;2.08;0.57;;;9.40;62.00;;;;;;20708492;28;20034;-75
2022/04/10 10:16:03;;;;;;;7.35;0.95;;;9.40;61.90;;;;;;20689176;28;20096;-77
2022/04/10 10:26:46;;;;;;;5.63;1.05;;;9.40;61.80;;;;;;20691547;28;20070;-81
2022/04/10 10:36:46;;;;;;;5.25;0.93;;;9.40;61.80;;;;;;20722612;28;20038;-77
2022/04/10 10:46:58;;;;;;;4.90;0.90;;;9.40;61.80;;;;;;20705659;28;20154;-74
2022/04/10 10:56:59;;;;;;;5.47;0.95;;;9.40;61.80;;;;;;20709200;28;20071;-73
2022/04/10 11:07:21;;;;;;;1.92;0.90;;;9.40;61.70;;;;;;20704232;28;20108;-71
2022/04/10 11:17:26;;;;;;;1.25;0.90;;;9.40;61.50;;;;;;20719360;28;20080;-70
2022/04/10 11:27:40;;;;;;;2.35;0.88;;;9.40;61.40;;;;;;20735206;28;20065;-74
2022/04/10 11:37:41;;;;;;;1.42;0.65;;;9.40;61.20;;;;;;20746011;28;20042;-73
2022/04/10 11:47:42;;;;;;;3.13;0.52;;;9.40;61.00;;;;;;20697831;28;20447;-73
2022/04/10 11:57:43;;;;;;;3.75;0.85;;;9.40;60.80;;;;;;20740904;28;20053;-73
2022/04/10 12:07:44;;;;;;;0.95;0.60;;;9.40;60.80;;;;;;20710842;28;20478;-73
2022/04/10 12:17:48;;;;;;;3.78;1.45;;;9.40;61.10;;;;;;20747849;28;20052;-73
2022/04/10 12:27:49;;;;;;;5.97;0.88;;;9.40;61.30;;;;;;20697535;28;20038;-74
2022/04/10 12:38:00;;;;;;;4.28;0.70;;;9.40;61.50;;;;;;20698383;28;20172;-74
2022/04/10 12:48:01;;;;;;;3.03;0.40;;;9.40;61.60;;;;;;20709543;28;20424;-75
2022/04/10 12:58:07;;;;;;;3.47;1.35;;;9.40;61.60;;;;;;20721658;28;20049;-75
2022/04/10 13:08:11;;;;;;;4.90;1.30;;;9.40;61.30;;;;;;20693480;28;20029;-73
2022/04/10 13:18:12;;;;;;;5.32;1.80;;;9.40;61.20;;;;;;20723690;28;20042;-74
2022/04/10 13:28:13;;;;;;;2.28;0.70;;;9.50;61.50;;;;;;20708823;28;20439;-74
2022/04/10 13:38:13;;;;;;;4.28;1.08;;;9.40;61.80;;;;;;20691025;28;20116;-73
2022/04/10 13:48:15;;;;;;;5.18;1.00;;;9.40;62.30;;;;;;20689944;28;20049;-73
2022/04/10 13:58:15;;;;;;;3.35;0.70;;;9.40;62.60;;;;;;20686733;28;20026;-73
2022/04/10 14:08:16;;;;;;;2.38;0.55;;;9.40;63.00;;;;;;20727582;28;20038;-72
2022/04/10 14:18:18;;;;;;;1.88;0.90;;;9.50;63.30;;;;;;20721073;28;20105;-72
2022/04/10 14:28:18;;;;;;;2.53;0.93;;;9.50;63.50;;;;;;20736837;28;20054;-72
2022/04/10 14:38:19;;;;;;;4.25;0.90;;;9.60;63.40;;;;;;20751547;28;20034;-72
2022/04/10 14:48:20;;;;;;;2.72;1.10;;;9.70;63.30;;;;;;20736765;28;20065;-71
2022/04/10 14:58:20;;;;;;;2.53;1.10;;;9.80;63.20;;;;;;20714464;28;20124;-72
2022/04/10 15:08:21;;;;;;;3.70;1.00;;;9.80;63.10;;;;;;20752835;28;20041;-72
2022/04/10 15:18:22;;;;;;;2.15;0.70;;;9.90;62.70;;;;;;20743377;28;20041;-72
2022/04/10 15:28:22;;;;;;;2.45;0.93;;;9.90;62.20;;;;;;20717493;28;20129;-72
2022/04/10 15:38:24;;;;;;;2.65;0.80;;;9.90;62.20;;;;;;20717165;28;20033;-72
2022/04/10 15:48:25;;;;;;;6.40;0.80;;;9.90;62.20;;;;;;20764757;28;20048;-76
2022/04/10 15:58:25;;;;;;;1.52;0.60;;;10.00;62.10;;;;;;20782452;28;20037;-77
2022/04/10 16:08:26;;;;;;;1.33;0.45;;;10.00;61.90;;;;;;20783260;28;20065;-77
2022/04/10 16:18:26;;;;;;;1.80;0.80;;;10.10;61.70;;;;;;20770316;28;20384;-77
2022/04/10 16:38:46;;;;;;;2.80;0.80;;;10.00;61.90;;;;;;20732845;28;20376;-77
2022/04/10 16:48:47;;;;;;;3.77;0.83;;;10.00;62.00;;;;;;20753385;28;20048;-76
2022/04/10 16:58:48;;;;;;;3.85;0.75;;;10.00;62.10;;;;;;20730283;28;20291;-73
2022/04/10 17:08:48;;;;;;;2.28;0.63;;;10.00;62.10;;;;;;20705887;28;20052;-74
2022/04/10 17:18:49;;;;;;;5.43;1.13;;;10.00;62.20;;;;;;20704198;28;20124;-75
2022/04/10 17:28:50;;;;;;;3.13;0.88;;;9.90;62.20;;;;;;20783837;28;20292;-76
2022/04/10 17:38:50;;;;;;;3.20;1.05;;;9.90;62.20;;;;;;20736243;28;20029;-75
2022/04/10 17:48:51;;;;;;;2.05;0.98;;;9.90;62.20;;;;;;20733411;28;20052;-75
2022/04/10 17:58:52;;;;;;;2.58;0.70;;;9.80;62.00;;;;;;20725101;28;20030;-75
2022/04/10 18:08:52;;;;;;;2.28;0.60;;;9.80;61.80;;;;;;20721516;28;20147;-75
2022/04/10 18:18:53;;;;;;;2.58;1.15;;;9.80;61.70;;;;;;20723283;28;20044;-75
2022/04/10 18:28:53;;;;;;;1.98;0.88;;;9.80;61.60;;;;;;20742384;28;20096;-75
2022/04/10 18:38:55;;;;;;;3.47;1.05;;;9.80;61.60;;;;;;20723294;28;20033;-74
2022/04/10 18:59:15;;;;;;;0.95;0.40;;;9.70;61.80;;;;;;20724888;28;20109;-74
2022/04/10 19:09:15;;;;;;;1.63;0.70;;;9.70;62.00;;;;;;20722586;28;20132;-75
2022/04/10 19:19:16;;;;;;;3.72;0.70;;;9.70;62.20;;;;;;20694845;28;20104;-75
2022/04/10 19:29:17;;;;;;;1.33;0.60;;;9.70;62.40;;;;;;20720302;28;20141;-75
2022/04/10 19:39:18;;;;;;;0.82;0.60;;;9.70;62.60;;;;;;20735417;28;20038;-75
2022/04/10 19:49:18;;;;;;;1.03;0.60;;;9.70;62.70;;;;;;20736753;28;20037;-75
2022/04/10 19:59:19;;;;;;;1.83;0.63;;;9.70;62.70;;;;;;20718232;28;20289;-75
2022/04/10 20:09:20;;;;;;;2.55;0.68;;;9.70;62.80;;;;;;20733158;28;20038;-75
2022/04/10 20:19:21;;;;;;;2.22;0.90;;;9.60;62.90;;;;;;20715958;28;20038;-75
2022/04/10 20:29:21;;;;;;;1.27;0.50;;;9.60;63.00;;;;;;20731613;28;20070;-75
2022/04/10 20:39:22;;;;;;;0.82;0.52;;;9.60;63.00;;;;;;20714524;28;20507;-75
2022/04/10 20:49:22;;;;;;;0.75;0.60;;;9.60;63.10;;;;;;20714275;28;20030;-75
2022/04/10 20:59:23;;;;;;;3.08;0.47;;;9.60;63.10;;;;;;20696837;28;20073;-75
2022/04/10 21:09:24;;;;;;;3.07;0.50;;;9.60;63.10;;;;;;20728624;28;20523;-75
2022/04/10 21:19:25;;;;;;;0.73;0.40;;;9.60;63.20;;;;;;20711929;28;20347;-75
2022/04/10 21:29:25;;;;;;;0.95;0.60;;;9.60;63.20;;;;;;20710856;28;20495;-75
2022/04/10 21:39:26;;;;;;;1.42;0.60;;;9.60;63.20;;;;;;20726006;28;20034;-75
2022/04/10 21:49:26;;;;;;;0.50;0.30;;;9.60;63.20;;;;;;20725971;28;20061;-74
2022/04/10 21:59:27;;;;;;;1.38;0.90;;;9.60;63.20;;;;;;20708923;28;20845;-75
2022/04/10 22:09:28;;;;;;;0.65;0.50;;;9.60;63.20;;;;;;20708872;28;20045;-75
2022/04/10 22:19:28;;;;;;;0.98;0.50;;;9.60;63.20;;;;;;20724425;28;20034;-75
2022/04/10 22:29:29;;;;;;;0.63;0.50;;;9.60;63.20;;;;;;20710777;28;20048;-75
2022/04/10 22:39:29;;;;;;;1.20;0.40;;;9.60;63.20;;;;;;20723202;28;20117;-76
2022/04/10 22:49:30;;;;;;;1.80;0.35;;;9.60;64.00;;;;;;20707167;28;20038;-75
2022/04/10 22:59:30;;;;;;;0.52;0.47;;;9.60;63.30;;;;;;20726827;28;20121;-75
2022/04/10 23:09:32;;;;;;;0.95;0.50;;;9.60;63.30;;;;;;20755398;28;20384;-75
2022/04/10 23:19:32;;;;;;;1.08;0.57;;;9.50;63.30;;;;;;20737320;28;20480;-76
2022/04/10 23:29:33;;;;;;;1.90;0.57;;;9.50;63.30;;;;;;20722653;28;20045;-75
2022/04/10 23:39:34;;;;;;;1.13;0.40;;;9.50;63.30;;;;;;20735691;28;20377;-76
2022/04/10 23:49:34;;;;;;;0.80;0.55;;;9.50;63.30;;;;;;20735010;28;20124;-75
2022/04/10 23:59:35;;;;;;;1.08;0.50;;;9.50;63.20;;;;;;20750572;28;20042;-76
